createdAt,value
2018-06-18T00:00:56.996Z,88.35
2018-06-18T00:01:56.947Z,87.45
2018-06-18T00:02:56.891Z,89.99
2018-06-18T00:03:56.836Z,88.79
2018-06-18T00:04:56.784Z,88.51
2018-06-18T00:05:56.732Z,87.35
2018-06-18T00:06:56.681Z,87.45
2018-06-18T00:07:56.628Z,87.93
2018-06-18T00:08:56.572Z,87.74
2018-06-18T00:09:56.519Z,88.65
2018-06-18T00:10:56.466Z,88.45
2018-06-18T00:11:56.415Z,88.84
2018-06-18T00:12:56.361Z,90.08
2018-06-18T00:13:56.311Z,90.47
2018-06-18T00:14:56.256Z,90.23
2018-06-18T00:15:56.200Z,91.09
2018-06-18T00:16:56.146Z,92.44
2018-06-18T00:17:56.093Z,91.96
2018-06-18T00:18:56.042Z,93.01
2018-06-18T00:19:55.988Z,92.68
2018-06-18T00:20:55.935Z,93.44
2018-06-18T00:21:55.880Z,93.83
2018-06-18T00:22:55.829Z,95.46
2018-06-18T00:23:55.772Z,95.26
2018-06-18T00:24:55.721Z,96.22
2018-06-18T00:25:55.666Z,95.56
2018-06-18T00:26:55.615Z,96.13
2018-06-18T00:27:55.558Z,96.80
2018-06-18T00:28:55.506Z,96.32
2018-06-18T00:29:55.452Z,97.18
2018-06-18T00:30:55.399Z,97.56
2018-06-18T00:31:55.343Z,98.00
2018-06-18T00:32:55.291Z,99.05
2018-06-18T00:33:55.240Z,99.05
2018-06-18T00:34:55.185Z,98.67
2018-06-18T00:35:55.139Z,99.43
2018-06-18T00:36:55.077Z,99.99
2018-06-18T00:37:55.022Z,99.82
2018-06-18T00:38:54.969Z,99.82
2018-06-18T00:39:54.915Z,99.99
2018-06-18T00:40:54.861Z,99.91
2018-06-18T00:41:54.808Z,99.99
2018-06-18T00:42:54.753Z,99.99
2018-06-18T00:43:54.698Z,99.99
2018-06-18T00:44:54.648Z,99.53
2018-06-18T00:45:54.590Z,99.99
2018-06-18T00:46:54.537Z,99.99
2018-06-18T00:47:54.485Z,99.99
2018-06-18T00:48:54.428Z,99.99
2018-06-18T00:49:54.379Z,99.99
2018-06-18T00:50:54.326Z,99.99
2018-06-18T00:51:54.276Z,99.99
2018-06-18T00:52:54.215Z,99.99
2018-06-18T00:53:54.158Z,99.99
2018-06-18T00:54:54.104Z,99.99
2018-06-18T00:55:54.147Z,99.99
2018-06-18T00:56:53.999Z,99.99
2018-06-18T00:57:53.945Z,99.99
2018-06-18T00:58:53.890Z,99.99
2018-06-18T00:59:53.834Z,99.99
2018-06-18T01:00:53.782Z,99.99
2018-06-18T01:01:53.728Z,99.99
2018-06-18T01:02:53.672Z,99.99
2018-06-18T01:03:53.618Z,99.99
2018-06-18T01:04:53.563Z,99.99
2018-06-18T01:05:53.510Z,99.99
2018-06-18T01:06:53.454Z,99.99
2018-06-18T01:07:53.405Z,99.99
2018-06-18T01:08:53.347Z,99.99
2018-06-18T01:09:53.294Z,99.99
2018-06-18T01:10:53.238Z,99.99
2018-06-18T01:11:53.185Z,99.99
2018-06-18T01:12:53.131Z,99.99
2018-06-18T01:13:53.076Z,99.99
2018-06-18T01:14:53.023Z,99.99
2018-06-18T01:15:52.970Z,99.99
2018-06-18T01:16:52.916Z,99.99
2018-06-18T01:17:52.862Z,99.99
2018-06-18T01:18:52.808Z,99.99
2018-06-18T01:19:52.752Z,99.99
2018-06-18T01:20:52.700Z,99.99
2018-06-18T01:21:52.645Z,99.99
2018-06-18T01:22:52.590Z,99.99
2018-06-18T01:23:52.537Z,99.99
2018-06-18T01:24:52.482Z,99.99
2018-06-18T01:25:52.429Z,99.99
2018-06-18T01:26:52.374Z,99.99
2018-06-18T01:27:52.319Z,99.99
2018-06-18T01:28:52.267Z,99.99
2018-06-18T01:29:52.213Z,99.99
2018-06-18T01:30:52.159Z,99.99
2018-06-18T01:31:52.104Z,99.99
2018-06-18T01:32:52.050Z,99.99
2018-06-18T01:33:51.996Z,99.99
2018-06-18T01:34:51.944Z,99.99
2018-06-18T01:35:51.886Z,99.99
2018-06-18T01:36:51.846Z,99.99
2018-06-18T01:37:51.780Z,99.99
2018-06-18T01:38:51.735Z,99.99
2018-06-18T01:39:51.671Z,99.99
2018-06-18T01:40:51.618Z,99.99
2018-06-18T01:41:51.564Z,99.99
2018-06-18T01:42:51.510Z,99.99
2018-06-18T01:43:51.460Z,99.99
2018-06-18T01:44:51.401Z,99.99
2018-06-18T01:45:51.348Z,99.99
2018-06-18T01:46:51.296Z,99.99
2018-06-18T01:47:51.239Z,99.99
2018-06-18T01:48:51.185Z,99.99
2018-06-18T01:49:51.131Z,99.99
2018-06-18T01:50:51.080Z,99.99
2018-06-18T01:51:51.028Z,99.99
2018-06-18T01:52:50.968Z,99.99
2018-06-18T01:53:50.917Z,99.99
2018-06-18T01:54:50.861Z,99.99
2018-06-18T01:55:50.808Z,99.99
2018-06-18T01:56:50.752Z,99.99
2018-06-18T01:57:50.699Z,99.99
2018-06-18T01:58:50.644Z,99.99
2018-06-18T01:59:50.591Z,99.15
2018-06-18T02:00:50.536Z,98.96
2018-06-18T02:01:50.483Z,99.15
2018-06-18T02:02:50.433Z,98.96
2018-06-18T02:03:50.376Z,98.10
2018-06-18T02:04:50.321Z,98.67
2018-06-18T02:05:50.269Z,98.86
2018-06-18T02:06:50.214Z,99.99
2018-06-18T02:07:50.183Z,99.99
2018-06-18T02:08:50.112Z,99.99
2018-06-18T02:09:50.065Z,99.99
2018-06-18T02:10:50.000Z,99.99
2018-06-18T02:11:49.949Z,99.99
2018-06-18T02:12:49.892Z,99.99
2018-06-18T02:13:49.837Z,99.99
2018-06-18T02:14:49.783Z,99.99
2018-06-18T02:15:49.731Z,99.99
2018-06-18T02:16:49.676Z,99.99
2018-06-18T02:17:49.623Z,99.99
2018-06-18T02:18:49.568Z,99.99
2018-06-18T02:19:49.512Z,99.99
2018-06-18T02:20:49.459Z,99.99
2018-06-18T02:21:49.553Z,99.99
2018-06-18T02:22:49.352Z,99.99
2018-06-18T02:23:49.298Z,99.99
2018-06-18T02:24:49.246Z,99.99
2018-06-18T02:25:49.190Z,99.99
2018-06-18T02:26:49.136Z,99.99
2018-06-18T02:27:49.082Z,99.99
2018-06-18T02:28:49.031Z,99.99
2018-06-18T02:29:48.981Z,99.99
2018-06-18T02:30:48.920Z,99.99
2018-06-18T02:31:48.869Z,99.99
2018-06-18T02:32:48.815Z,99.99
2018-06-18T02:33:48.761Z,99.99
2018-06-18T02:34:48.717Z,99.99
2018-06-18T02:35:48.652Z,99.99
2018-06-18T02:36:48.598Z,99.99
2018-06-18T02:37:48.543Z,99.99
2018-06-18T02:38:48.491Z,99.99
2018-06-18T02:39:48.438Z,99.99
2018-06-18T02:40:48.390Z,99.99
2018-06-18T02:41:48.327Z,99.82
2018-06-18T02:42:48.274Z,99.63
2018-06-18T02:43:48.223Z,99.99
2018-06-18T02:44:48.167Z,99.82
2018-06-18T02:45:48.113Z,99.99
2018-06-18T02:46:48.060Z,99.99
2018-06-18T02:47:48.011Z,99.99
2018-06-18T02:48:47.967Z,99.99
2018-06-18T02:49:47.902Z,99.99
2018-06-18T02:50:47.845Z,99.99
2018-06-18T02:51:47.789Z,99.99
2018-06-18T02:52:47.739Z,99.99
2018-06-18T02:53:47.683Z,99.99
2018-06-18T02:54:47.631Z,99.99
2018-06-18T02:55:47.576Z,99.99
2018-06-18T02:56:47.521Z,99.99
2018-06-18T02:57:47.470Z,99.99
2018-06-18T02:58:47.416Z,99.99
2018-06-18T02:59:47.360Z,99.99
2018-06-18T03:00:47.306Z,99.99
2018-06-18T03:01:47.253Z,99.99
2018-06-18T03:02:47.202Z,99.99
2018-06-18T03:03:47.144Z,99.99
2018-06-18T03:04:47.090Z,99.99
2018-06-18T03:05:47.037Z,99.99
2018-06-18T03:06:46.983Z,99.99
2018-06-18T03:07:46.927Z,99.99
2018-06-18T03:08:46.873Z,99.99
2018-06-18T03:09:46.823Z,99.99
2018-06-18T03:10:46.767Z,99.99
2018-06-18T03:11:46.716Z,99.99
2018-06-18T03:12:46.661Z,99.99
2018-06-18T03:13:46.604Z,99.99
2018-06-18T03:14:46.552Z,99.99
2018-06-18T03:15:46.493Z,99.99
2018-06-18T03:16:46.441Z,99.99
2018-06-18T03:17:46.389Z,99.99
2018-06-18T03:18:46.333Z,99.99
2018-06-18T03:19:46.277Z,99.99
2018-06-18T03:20:46.224Z,99.99
2018-06-18T03:21:46.170Z,99.99
2018-06-18T03:22:46.117Z,99.99
2018-06-18T03:23:46.062Z,99.99
2018-06-18T03:24:46.008Z,99.99
2018-06-18T03:25:45.954Z,99.99
2018-06-18T03:26:45.900Z,99.99
2018-06-18T03:27:45.845Z,99.99
2018-06-18T03:28:45.791Z,99.99
2018-06-18T03:29:45.736Z,99.99
2018-06-18T03:30:45.685Z,99.99
2018-06-18T03:31:45.629Z,99.99
2018-06-18T03:32:45.578Z,99.99
2018-06-18T03:33:45.519Z,99.99
2018-06-18T03:34:45.469Z,99.99
2018-06-18T03:35:45.413Z,99.99
2018-06-18T03:36:45.358Z,99.99
2018-06-18T03:37:45.304Z,99.99
2018-06-18T03:38:45.251Z,99.99
2018-06-18T03:39:45.199Z,99.99
2018-06-18T03:40:45.141Z,99.99
2018-06-18T03:41:45.093Z,99.99
2018-06-18T03:42:45.035Z,99.99
2018-06-18T03:43:44.979Z,99.99
2018-06-18T03:44:44.925Z,99.99
2018-06-18T03:45:44.872Z,99.99
2018-06-18T03:46:44.819Z,99.99
2018-06-18T03:47:44.761Z,99.99
2018-06-18T03:48:44.708Z,99.99
2018-06-18T03:49:44.656Z,99.99
2018-06-18T03:50:44.601Z,99.99
2018-06-18T03:51:44.546Z,99.99
2018-06-18T03:52:44.494Z,99.99
2018-06-18T03:53:44.438Z,99.99
2018-06-18T03:54:44.384Z,99.99
2018-06-18T03:55:44.334Z,99.99
2018-06-18T03:56:44.276Z,99.99
2018-06-18T03:57:44.222Z,99.99
2018-06-18T03:58:44.172Z,99.99
2018-06-18T03:59:44.113Z,99.99
2018-06-18T04:00:44.060Z,99.99
2018-06-18T04:01:44.007Z,99.99
2018-06-18T04:02:43.953Z,99.99
2018-06-18T04:03:43.897Z,99.99
2018-06-18T04:04:43.844Z,99.99
2018-06-18T04:05:43.790Z,99.99
2018-06-18T04:06:43.737Z,99.99
2018-06-18T04:07:43.692Z,99.99
2018-06-18T04:08:43.629Z,99.99
2018-06-18T04:09:43.575Z,99.99
2018-06-18T04:10:43.524Z,99.99
2018-06-18T04:11:43.465Z,99.99
2018-06-18T04:12:43.411Z,99.99
2018-06-18T04:13:43.357Z,99.99
2018-06-18T04:14:43.309Z,99.99
2018-06-18T04:15:43.248Z,99.99
2018-06-18T04:16:43.196Z,99.99
2018-06-18T04:17:43.143Z,99.99
2018-06-18T04:18:43.088Z,99.99
2018-06-18T04:19:43.033Z,99.99
2018-06-18T04:20:42.981Z,99.99
2018-06-18T04:21:42.926Z,99.99
2018-06-18T04:22:42.873Z,99.99
2018-06-18T04:23:42.818Z,99.99
2018-06-18T04:24:42.767Z,99.99
2018-06-18T04:25:42.709Z,99.99
2018-06-18T04:26:42.659Z,99.99
2018-06-18T04:27:42.602Z,99.99
2018-06-18T04:28:42.550Z,99.99
2018-06-18T04:29:42.497Z,99.99
2018-06-18T04:30:42.443Z,99.99
2018-06-18T04:31:42.386Z,99.99
2018-06-18T04:32:42.332Z,99.99
2018-06-18T04:33:42.278Z,99.99
2018-06-18T04:34:42.225Z,99.99
2018-06-18T04:35:42.170Z,99.99
2018-06-18T04:36:42.116Z,99.99
2018-06-18T04:37:42.208Z,99.99
2018-06-18T04:38:42.010Z,99.99
2018-06-18T04:39:41.957Z,99.99
2018-06-18T04:40:41.908Z,99.99
2018-06-18T04:41:41.854Z,99.99
2018-06-18T04:42:41.802Z,99.99
2018-06-18T04:43:41.739Z,99.99
2018-06-18T04:44:41.703Z,99.99
2018-06-18T04:45:41.634Z,99.99
2018-06-18T04:46:41.580Z,99.99
2018-06-18T04:47:41.526Z,99.99
2018-06-18T04:48:41.472Z,99.99
2018-06-18T04:49:41.420Z,99.99
2018-06-18T04:50:41.365Z,99.99
2018-06-18T04:51:41.313Z,99.99
2018-06-18T04:52:41.258Z,99.99
2018-06-18T04:53:41.220Z,99.99
2018-06-18T04:54:41.150Z,99.99
2018-06-18T04:55:41.094Z,99.99
2018-06-18T04:56:41.117Z,99.99
2018-06-18T04:57:40.995Z,99.99
2018-06-18T04:58:40.935Z,99.99
2018-06-18T04:59:40.898Z,99.99
2018-06-18T05:00:40.832Z,99.99
2018-06-18T05:01:40.778Z,99.99
2018-06-18T05:02:40.721Z,99.99
2018-06-18T05:03:40.665Z,99.99
2018-06-18T05:04:40.621Z,99.99
2018-06-18T05:05:40.558Z,99.99
2018-06-18T05:06:40.505Z,99.99
2018-06-18T05:07:40.450Z,99.91
2018-06-18T05:08:40.396Z,99.05
2018-06-18T05:09:40.342Z,99.99
2018-06-18T05:10:40.289Z,99.99
2018-06-18T05:11:40.236Z,99.43
2018-06-18T05:12:40.185Z,98.47
2018-06-18T05:13:40.129Z,98.00
2018-06-18T05:14:40.075Z,98.28
2018-06-18T05:15:40.020Z,97.09
2018-06-18T05:16:39.966Z,97.56
2018-06-18T05:17:39.912Z,97.38
2018-06-18T05:18:39.860Z,97.95
2018-06-18T05:19:39.805Z,99.99
2018-06-18T05:20:39.789Z,98.81
2018-06-18T05:21:39.697Z,99.01
2018-06-18T05:22:39.655Z,97.76
2018-06-18T05:23:39.589Z,97.66
2018-06-18T05:24:39.537Z,95.26
2018-06-18T05:25:39.485Z,95.56
2018-06-18T05:26:39.432Z,95.65
2018-06-18T05:27:39.374Z,95.46
2018-06-18T05:28:39.326Z,95.46
2018-06-18T05:29:39.267Z,95.31
2018-06-18T05:30:39.213Z,94.54
2018-06-18T05:31:39.160Z,94.45
2018-06-18T05:32:39.126Z,92.72
2018-06-18T05:33:39.056Z,92.82
2018-06-18T05:34:39.004Z,92.05
2018-06-18T05:35:38.944Z,92.34
2018-06-18T05:36:38.892Z,90.81
2018-06-18T05:37:38.837Z,91.62
2018-06-18T05:38:38.785Z,90.61
2018-06-18T05:39:38.734Z,91.05
2018-06-18T05:40:38.678Z,90.95
2018-06-18T05:41:38.625Z,91.33
2018-06-18T05:42:38.576Z,91.33
2018-06-18T05:43:38.538Z,90.56
2018-06-18T05:44:38.470Z,90.18
2018-06-18T05:45:38.410Z,89.51
2018-06-18T05:46:38.359Z,88.45
2018-06-18T05:47:38.305Z,87.78
2018-06-18T05:48:38.260Z,87.98
2018-06-18T05:49:38.198Z,87.54
2018-06-18T05:50:38.156Z,88.07
2018-06-18T05:51:38.091Z,87.40
2018-06-18T05:52:38.043Z,87.40
2018-06-18T05:53:37.987Z,88.98
2018-06-18T05:54:37.935Z,87.73
2018-06-18T05:55:37.883Z,86.48
2018-06-18T05:56:37.828Z,86.68
2018-06-18T05:57:37.773Z,86.10
2018-06-18T05:58:37.722Z,85.81
2018-06-18T05:59:37.671Z,86.29
2018-06-18T06:00:37.615Z,84.95
2018-06-18T06:01:37.565Z,85.81
2018-06-18T06:02:37.510Z,85.14
2018-06-18T06:03:37.455Z,85.33
2018-06-18T06:04:37.403Z,85.14
2018-06-18T06:05:37.350Z,85.71
2018-06-18T06:06:37.299Z,86.10
2018-06-18T06:07:37.277Z,85.81
2018-06-18T06:08:37.195Z,84.18
2018-06-18T06:09:37.139Z,83.22
2018-06-18T06:10:37.087Z,83.70
2018-06-18T06:11:37.037Z,84.37
2018-06-18T06:12:36.982Z,82.54
2018-06-18T06:13:36.930Z,82.84
2018-06-18T06:14:36.885Z,81.10
2018-06-18T06:15:36.823Z,82.93
2018-06-18T06:16:36.771Z,84.08
2018-06-18T06:17:36.720Z,82.35
2018-06-18T06:18:36.667Z,81.68
2018-06-18T06:19:36.613Z,82.35
2018-06-18T06:20:36.562Z,83.60
2018-06-18T06:21:36.508Z,84.03
2018-06-18T06:22:36.458Z,83.84
2018-06-18T06:23:36.431Z,81.72
2018-06-18T06:24:36.357Z,81.68
2018-06-18T06:25:36.297Z,81.01
2018-06-18T06:26:36.247Z,80.91
2018-06-18T06:27:36.197Z,81.15
2018-06-18T06:28:36.139Z,80.34
2018-06-18T06:29:36.136Z,80.96
2018-06-18T06:30:36.036Z,82.49
2018-06-18T06:31:35.986Z,83.54
2018-06-18T06:32:35.930Z,82.20
2018-06-18T06:33:35.880Z,82.78
2018-06-18T06:34:35.825Z,82.59
2018-06-18T06:35:35.771Z,83.64
2018-06-18T06:36:35.719Z,81.63
2018-06-18T06:37:35.672Z,84.89
2018-06-18T06:38:35.617Z,83.59
2018-06-18T06:39:35.565Z,81.67
2018-06-18T06:40:35.512Z,82.63
2018-06-18T06:41:35.460Z,79.07
2018-06-18T06:42:35.410Z,78.98
2018-06-18T06:43:35.353Z,77.83
2018-06-18T06:44:35.301Z,78.11
2018-06-18T06:45:35.250Z,82.15
2018-06-18T06:46:35.197Z,78.78
2018-06-18T06:47:35.156Z,77.83
2018-06-18T06:48:35.948Z,78.02
2018-06-18T06:49:35.044Z,77.15
2018-06-18T06:50:34.993Z,78.50
2018-06-18T06:51:34.936Z,78.69
2018-06-18T06:52:34.884Z,78.78
2018-06-18T06:53:34.833Z,77.92
2018-06-18T06:54:34.781Z,76.86
2018-06-18T06:55:34.731Z,76.39
2018-06-18T06:56:34.678Z,77.25
2018-06-18T06:57:34.626Z,76.71
2018-06-18T06:58:34.575Z,76.14
2018-06-18T06:59:34.521Z,75.65
2018-06-18T07:00:34.471Z,75.52
2018-06-18T07:01:34.418Z,75.81
2018-06-18T07:02:34.372Z,78.02
2018-06-18T07:03:34.315Z,77.63
2018-06-18T07:04:34.264Z,77.15
2018-06-18T07:05:34.212Z,77.67
2018-06-18T07:06:34.163Z,76.71
2018-06-18T07:07:34.107Z,76.61
2018-06-18T07:08:34.055Z,76.52
2018-06-18T07:09:34.005Z,75.27
2018-06-18T07:10:33.955Z,74.88
2018-06-18T07:11:33.900Z,74.98
2018-06-18T07:12:33.871Z,77.00
2018-06-18T07:13:33.876Z,76.14
2018-06-18T07:14:33.745Z,75.07
2018-06-18T07:15:33.694Z,74.21
2018-06-18T07:16:33.641Z,75.17
2018-06-18T07:17:33.590Z,76.23
2018-06-18T07:18:33.540Z,77.09
2018-06-18T07:19:33.486Z,75.37
2018-06-18T07:20:33.438Z,76.23
2018-06-18T07:21:33.386Z,74.79
2018-06-18T07:22:33.392Z,76.04
2018-06-18T07:23:33.285Z,74.73
2018-06-18T07:24:33.228Z,77.81
2018-06-18T07:25:33.180Z,78.19
2018-06-18T07:26:33.126Z,75.59
2018-06-18T07:27:33.077Z,76.17
2018-06-18T07:28:33.024Z,74.25
2018-06-18T07:29:32.974Z,75.69
2018-06-18T07:30:33.103Z,74.82
2018-06-18T07:31:32.869Z,74.92
2018-06-18T07:32:32.818Z,73.28
2018-06-18T07:33:32.766Z,72.32
2018-06-18T07:34:32.715Z,74.30
2018-06-18T07:35:32.665Z,74.82
2018-06-18T07:36:32.612Z,73.47
2018-06-18T07:37:32.567Z,74.73
2018-06-18T07:38:32.581Z,74.82
2018-06-18T07:39:32.461Z,78.77
2018-06-18T07:40:32.407Z,75.59
2018-06-18T07:41:32.404Z,73.28
2018-06-18T07:42:32.305Z,74.92
2018-06-18T07:43:32.253Z,73.19
2018-06-18T07:44:32.201Z,73.57
2018-06-18T07:45:32.174Z,74.44
2018-06-18T07:46:32.109Z,74.44
2018-06-18T07:47:32.050Z,75.98
2018-06-18T07:48:31.997Z,75.88
2018-06-18T07:49:31.950Z,75.02
2018-06-18T07:50:31.901Z,71.84
2018-06-18T07:51:31.911Z,73.19
2018-06-18T07:52:31.798Z,70.88
2018-06-18T07:53:31.745Z,70.88
2018-06-18T07:54:31.696Z,72.90
2018-06-18T07:55:31.642Z,72.90
2018-06-18T07:56:31.593Z,73.86
2018-06-18T07:57:31.574Z,72.03
2018-06-18T07:58:31.490Z,71.94
2018-06-18T07:59:31.436Z,73.19
2018-06-18T08:00:31.385Z,73.09
2018-06-18T08:01:31.337Z,72.65
2018-06-18T08:02:31.284Z,72.94
2018-06-18T08:03:31.246Z,70.43
2018-06-18T08:04:31.183Z,71.65
2018-06-18T08:05:31.132Z,70.72
2018-06-18T08:06:31.080Z,71.78
2018-06-18T08:07:31.029Z,70.92
2018-06-18T08:08:30.979Z,72.74
2018-06-18T08:09:30.932Z,73.51
2018-06-18T08:10:30.879Z,74.29
2018-06-18T08:11:30.825Z,70.53
2018-06-18T08:12:30.774Z,70.88
2018-06-18T08:13:30.727Z,69.24
2018-06-18T08:14:30.676Z,70.88
2018-06-18T08:15:30.622Z,70.88
2018-06-18T08:16:30.571Z,72.61
2018-06-18T08:17:30.523Z,74.48
2018-06-18T08:18:30.470Z,74.48
2018-06-18T08:19:30.420Z,73.22
2018-06-18T08:20:30.399Z,72.07
2018-06-18T08:21:30.317Z,72.65
2018-06-18T08:22:30.270Z,73.03
2018-06-18T08:23:30.216Z,71.59
2018-06-18T08:24:30.165Z,70.62
2018-06-18T08:25:30.114Z,70.34
2018-06-18T08:26:30.065Z,69.57
2018-06-18T08:27:30.014Z,70.43
2018-06-18T08:28:29.962Z,68.51
2018-06-18T08:29:29.917Z,68.41
2018-06-18T08:30:29.859Z,70.15
2018-06-18T08:31:29.808Z,69.76
2018-06-18T08:32:29.763Z,68.51
2018-06-18T08:33:29.709Z,69.67
2018-06-18T08:34:29.658Z,71.04
2018-06-18T08:35:29.606Z,69.70
2018-06-18T08:36:29.554Z,70.37
2018-06-18T08:37:29.504Z,68.93
2018-06-18T08:38:29.453Z,66.42
2018-06-18T08:39:29.419Z,67.97
2018-06-18T08:40:29.353Z,69.18
2018-06-18T08:41:29.302Z,69.28
2018-06-18T08:42:29.249Z,70.28
2018-06-18T08:43:29.198Z,68.35
2018-06-18T08:44:29.149Z,69.60
2018-06-18T08:45:29.101Z,69.25
2018-06-18T08:46:29.048Z,68.48
2018-06-18T08:47:28.996Z,68.29
2018-06-18T08:48:28.943Z,67.71
2018-06-18T08:49:28.896Z,67.61
2018-06-18T08:50:28.845Z,66.91
2018-06-18T08:51:28.794Z,66.91
2018-06-18T08:52:28.741Z,68.35
2018-06-18T08:53:28.693Z,69.12
2018-06-18T08:54:28.643Z,69.70
2018-06-18T08:55:28.590Z,69.51
2018-06-18T08:56:28.538Z,70.18
2018-06-18T08:57:28.487Z,69.12
2018-06-18T08:58:28.442Z,68.06
2018-06-18T08:59:28.386Z,67.68
2018-06-18T09:00:28.334Z,67.81
2018-06-18T09:01:28.285Z,67.52
2018-06-18T09:02:28.233Z,69.87
2018-06-18T09:03:28.181Z,67.16
2018-06-18T09:04:28.132Z,66.11
2018-06-18T09:05:28.081Z,68.32
2018-06-18T09:06:28.031Z,68.90
2018-06-18T09:07:27.982Z,67.84
2018-06-18T09:08:27.928Z,66.27
2018-06-18T09:09:27.878Z,65.78
2018-06-18T09:10:27.886Z,68.77
2018-06-18T09:11:27.781Z,69.25
2018-06-18T09:12:27.726Z,69.67
2018-06-18T09:13:27.677Z,66.78
2018-06-18T09:14:27.628Z,66.20
2018-06-18T09:15:27.576Z,68.93
2018-06-18T09:16:27.526Z,66.97
2018-06-18T09:17:27.477Z,69.29
2018-06-18T09:18:27.424Z,68.42
2018-06-18T09:19:27.375Z,65.53
2018-06-18T09:20:27.323Z,65.33
2018-06-18T09:21:27.272Z,66.01
2018-06-18T09:22:27.222Z,65.63
2018-06-18T09:23:27.175Z,65.43
2018-06-18T09:24:27.126Z,66.01
2018-06-18T09:25:27.071Z,66.88
2018-06-18T09:26:27.021Z,66.59
2018-06-18T09:27:26.971Z,66.39
2018-06-18T09:28:26.920Z,66.01
2018-06-18T09:29:26.869Z,66.01
2018-06-18T09:30:26.823Z,65.43
2018-06-18T09:31:26.768Z,65.24
2018-06-18T09:32:26.804Z,66.78
2018-06-18T09:33:26.668Z,66.91
2018-06-18T09:34:26.619Z,65.53
2018-06-18T09:35:26.571Z,66.30
2018-06-18T09:36:26.519Z,65.33
2018-06-18T09:37:26.472Z,63.89
2018-06-18T09:38:26.419Z,63.70
2018-06-18T09:39:26.368Z,64.02
2018-06-18T09:40:26.318Z,63.15
2018-06-18T09:41:26.267Z,62.28
2018-06-18T09:42:26.219Z,63.57
2018-06-18T09:43:26.165Z,64.82
2018-06-18T09:44:26.117Z,64.15
2018-06-18T09:45:26.067Z,63.54
2018-06-18T09:46:26.023Z,64.11
2018-06-18T09:47:25.965Z,63.50
2018-06-18T09:48:25.919Z,65.50
2018-06-18T09:49:25.864Z,66.17
2018-06-18T09:50:25.815Z,67.03
2018-06-18T09:51:25.767Z,66.59
2018-06-18T09:52:25.715Z,66.88
2018-06-18T09:53:25.668Z,64.86
2018-06-18T09:54:25.612Z,63.92
2018-06-18T09:55:25.563Z,64.98
2018-06-18T09:56:25.512Z,65.56
2018-06-18T09:57:25.461Z,62.96
2018-06-18T09:58:25.411Z,63.31
2018-06-18T09:59:25.362Z,65.33
2018-06-18T10:00:25.320Z,64.47
2018-06-18T10:01:25.260Z,65.63
2018-06-18T10:02:25.282Z,66.01
2018-06-18T10:03:25.158Z,64.11
2018-06-18T10:04:25.113Z,65.17
2018-06-18T10:05:25.063Z,64.92
2018-06-18T10:06:25.008Z,61.54
2018-06-18T10:07:24.957Z,62.89
2018-06-18T10:08:25.095Z,63.50
2018-06-18T10:09:24.857Z,61.86
2018-06-18T10:10:24.811Z,63.43
2018-06-18T10:11:24.757Z,63.15
2018-06-18T10:12:24.708Z,64.14
2018-06-18T10:13:24.659Z,61.63
2018-06-18T10:14:24.644Z,61.63
2018-06-18T10:15:24.559Z,59.22
2018-06-18T10:16:24.509Z,60.57
2018-06-18T10:17:24.460Z,61.05
2018-06-18T10:18:24.411Z,59.60
2018-06-18T10:19:24.363Z,64.05
2018-06-18T10:20:24.314Z,57.67
2018-06-18T10:21:24.265Z,56.96
2018-06-18T10:22:24.215Z,59.12
2018-06-18T10:23:24.166Z,58.86
2018-06-18T10:24:24.152Z,63.79
2018-06-18T10:25:24.071Z,58.86
2018-06-18T10:26:24.020Z,59.34
2018-06-18T10:27:23.970Z,60.21
2018-06-18T10:28:23.921Z,57.70
2018-06-18T10:29:23.874Z,59.12
2018-06-18T10:30:23.825Z,60.28
2018-06-18T10:31:23.777Z,61.57
2018-06-18T10:32:23.729Z,59.80
2018-06-18T10:33:23.679Z,58.61
2018-06-18T10:34:23.628Z,60.06
2018-06-18T10:35:23.581Z,59.83
2018-06-18T10:36:23.531Z,60.89
2018-06-18T10:37:23.481Z,60.89
2018-06-18T10:38:23.434Z,60.68
2018-06-18T10:39:23.384Z,62.60
2018-06-18T10:40:23.334Z,61.67
2018-06-18T10:41:23.291Z,61.19
2018-06-18T10:42:23.239Z,61.86
2018-06-18T10:43:23.191Z,61.86
2018-06-18T10:44:23.135Z,62.44
2018-06-18T10:45:23.088Z,61.96
2018-06-18T10:46:23.039Z,61.67
2018-06-18T10:47:22.989Z,60.61
2018-06-18T10:48:22.940Z,60.89
2018-06-18T10:49:22.891Z,60.86
2018-06-18T10:50:22.841Z,60.68
2018-06-18T10:51:22.791Z,60.80
2018-06-18T10:52:22.743Z,60.80
2018-06-18T10:53:22.696Z,60.71
2018-06-18T10:54:22.645Z,60.22
2018-06-18T10:55:22.594Z,59.06
2018-06-18T10:56:22.547Z,58.77
2018-06-18T10:57:22.495Z,59.61
2018-06-18T10:58:22.445Z,60.03
2018-06-18T10:59:22.398Z,59.83
2018-06-18T11:00:22.346Z,58.77
2018-06-18T11:01:22.300Z,59.58
2018-06-18T11:02:22.248Z,59.48
2018-06-18T11:03:22.201Z,60.83
2018-06-18T11:04:22.148Z,59.09
2018-06-18T11:05:22.105Z,57.84
2018-06-18T11:06:22.051Z,57.57
2018-06-18T11:07:22.003Z,58.54
2018-06-18T11:08:21.952Z,59.60
2018-06-18T11:09:21.903Z,57.67
2018-06-18T11:10:21.856Z,56.90
2018-06-18T11:11:21.803Z,57.09
2018-06-18T11:12:21.759Z,58.06
2018-06-18T11:13:21.706Z,59.70
2018-06-18T11:14:21.661Z,59.44
2018-06-18T11:15:21.607Z,58.86
2018-06-18T11:16:21.795Z,57.79
2018-06-18T11:17:21.737Z,60.41
2018-06-18T11:18:21.460Z,58.95
2018-06-18T11:19:21.416Z,58.09
2018-06-18T11:20:21.364Z,56.95
2018-06-18T11:21:21.315Z,59.08
2018-06-18T11:22:21.264Z,57.05
2018-06-18T11:23:21.216Z,55.87
2018-06-18T11:24:21.178Z,54.80
2018-06-18T11:25:21.250Z,56.63
2018-06-18T11:26:21.099Z,58.57
2018-06-18T11:27:21.086Z,56.93
2018-06-18T11:28:21.032Z,57.63
2018-06-18T11:29:20.926Z,56.76
2018-06-18T11:30:20.876Z,56.86
2018-06-18T11:31:20.899Z,57.63
2018-06-18T11:32:20.821Z,56.57
2018-06-18T11:33:20.735Z,57.15
2018-06-18T11:34:20.682Z,57.66
2018-06-18T11:35:20.633Z,56.21
2018-06-18T11:36:20.585Z,55.92
2018-06-18T11:37:20.537Z,56.30
2018-06-18T11:38:20.487Z,56.11
2018-06-18T11:39:20.510Z,55.34
2018-06-18T11:40:20.391Z,53.31
2018-06-18T11:41:20.344Z,53.38
2018-06-18T11:42:20.393Z,53.96
2018-06-18T11:43:20.302Z,55.79
2018-06-18T11:44:20.199Z,56.88
2018-06-18T11:45:20.150Z,57.46
2018-06-18T11:46:20.106Z,57.76
2018-06-18T11:47:20.053Z,55.82
2018-06-18T11:48:20.071Z,55.43
2018-06-18T11:49:19.962Z,55.15
2018-06-18T11:50:20.015Z,54.85
2018-06-18T11:51:19.868Z,53.50
2018-06-18T11:52:19.866Z,53.50
2018-06-18T11:53:19.765Z,55.24
2018-06-18T11:54:19.755Z,56.50
2018-06-18T11:55:19.672Z,57.69
2018-06-18T11:56:19.621Z,55.05
2018-06-18T11:57:19.573Z,55.07
2018-06-18T11:58:19.565Z,54.95
2018-06-18T11:59:19.477Z,54.59
2018-06-18T12:00:19.430Z,54.21
2018-06-18T12:01:19.429Z,54.11
2018-06-18T12:02:19.335Z,54.49
2018-06-18T12:03:19.287Z,53.43
2018-06-18T12:04:19.246Z,53.72
2018-06-18T12:05:19.191Z,56.11
2018-06-18T12:06:19.144Z,54.66
2018-06-18T12:07:19.133Z,55.46
2018-06-18T12:08:19.050Z,57.20
2018-06-18T12:09:19.004Z,56.14
2018-06-18T12:10:18.954Z,55.88
2018-06-18T12:11:18.903Z,56.94
2018-06-18T12:12:18.859Z,56.97
2018-06-18T12:13:18.809Z,55.04
2018-06-18T12:14:18.762Z,53.67
2018-06-18T12:15:18.715Z,51.74
2018-06-18T12:16:18.666Z,51.74
2018-06-18T12:17:18.618Z,52.12
2018-06-18T12:18:18.574Z,51.81
2018-06-18T12:19:18.523Z,54.33
2018-06-18T12:20:18.476Z,53.14
2018-06-18T12:21:18.432Z,51.98
2018-06-18T12:22:18.402Z,52.08
2018-06-18T12:23:18.333Z,52.08
2018-06-18T12:24:18.286Z,52.92
2018-06-18T12:25:18.240Z,54.88
2018-06-18T12:26:18.191Z,53.89
2018-06-18T12:27:18.142Z,54.69
2018-06-18T12:28:18.096Z,55.36
2018-06-18T12:29:18.048Z,54.79
2018-06-18T12:30:18.002Z,54.79
2018-06-18T12:31:17.952Z,55.56
2018-06-18T12:32:17.915Z,56.16
2018-06-18T12:33:17.857Z,54.23
2018-06-18T12:34:17.819Z,53.63
2018-06-18T12:35:17.828Z,54.21
2018-06-18T12:36:17.714Z,56.02
2018-06-18T12:37:17.668Z,55.82
2018-06-18T12:38:17.621Z,54.95
2018-06-18T12:39:17.570Z,54.85
2018-06-18T12:40:17.532Z,54.93
2018-06-18T12:41:17.560Z,54.99
2018-06-18T12:42:17.429Z,54.80
2018-06-18T12:43:17.389Z,55.09
2018-06-18T12:44:17.329Z,55.89
2018-06-18T12:45:17.288Z,54.35
2018-06-18T12:46:17.234Z,55.92
2018-06-18T12:47:17.187Z,56.70
2018-06-18T12:48:17.149Z,56.62
2018-06-18T12:49:17.100Z,55.46
2018-06-18T12:50:17.056Z,54.21
2018-06-18T12:51:16.992Z,53.63
2018-06-18T12:52:16.949Z,53.04